sensor_id;sensor_type;location;lat;lon;timestamp;pressure;altitude;pressure_sealevel;temperature;humidity
75536;BME280;64119;52.070;20.804;2023-05-17T00:01:52;100247.11;;;13.51;87.30
75536;BME280;64119;52.070;20.804;2023-05-17T00:04:18;100245.60;;;13.48;88.36
75536;BME280;64119;52.070;20.804;2023-05-17T00:06:45;100244.14;;;13.44;87.95
75536;BME280;64119;52.070;20.804;2023-05-17T00:09:12;100245.58;;;13.46;86.77
75536;BME280;64119;52.070;20.804;2023-05-17T00:11:38;100243.56;;;13.46;87.37
75536;BME280;64119;52.070;20.804;2023-05-17T00:14:05;100240.66;;;13.45;86.34
75536;BME280;64119;52.070;20.804;2023-05-17T00:16:31;100238.73;;;13.42;87.34
75536;BME280;64119;52.070;20.804;2023-05-17T00:18:58;100242.39;;;13.40;86.23
75536;BME280;64119;52.070;20.804;2023-05-17T00:21:25;100243.27;;;13.37;87.91
75536;BME280;64119;52.070;20.804;2023-05-17T00:23:52;100245.24;;;13.34;88.60
75536;BME280;64119;52.070;20.804;2023-05-17T00:26:18;100245.17;;;13.30;88.98
75536;BME280;64119;52.070;20.804;2023-05-17T00:28:45;100243.63;;;13.28;89.25
75536;BME280;64119;52.070;20.804;2023-05-17T00:31:13;100243.94;;;13.26;89.50
75536;BME280;64119;52.070;20.804;2023-05-17T00:33:40;100236.05;;;13.24;88.94
75536;BME280;64119;52.070;20.804;2023-05-17T00:36:06;100235.27;;;13.22;89.56
75536;BME280;64119;52.070;20.804;2023-05-17T00:38:33;100232.80;;;13.21;89.55
75536;BME280;64119;52.070;20.804;2023-05-17T00:41:01;100232.16;;;13.17;89.80
75536;BME280;64119;52.070;20.804;2023-05-17T00:43:27;100230.61;;;13.15;91.33
75536;BME280;64119;52.070;20.804;2023-05-17T00:45:55;100232.30;;;13.12;90.05
75536;BME280;64119;52.070;20.804;2023-05-17T00:48:21;100233.40;;;13.11;90.99
75536;BME280;64119;52.070;20.804;2023-05-17T00:50:52;100234.73;;;13.09;91.05
75536;BME280;64119;52.070;20.804;2023-05-17T00:53:19;100236.81;;;13.07;91.18
75536;BME280;64119;52.070;20.804;2023-05-17T00:55:45;100240.01;;;13.09;89.51
75536;BME280;64119;52.070;20.804;2023-05-17T00:58:13;100237.88;;;13.09;91.08
75536;BME280;64119;52.070;20.804;2023-05-17T01:00:40;100234.27;;;13.09;90.19
75536;BME280;64119;52.070;20.804;2023-05-17T01:03:07;100231.61;;;13.09;89.96
75536;BME280;64119;52.070;20.804;2023-05-17T01:05:33;100229.84;;;13.10;89.87
75536;BME280;64119;52.070;20.804;2023-05-17T01:08:01;100231.23;;;13.09;90.38
75536;BME280;64119;52.070;20.804;2023-05-17T01:10:45;100233.70;;;13.08;91.86
75536;BME280;64119;52.070;20.804;2023-05-17T01:13:30;100228.75;;;13.08;91.10
75536;BME280;64119;52.070;20.804;2023-05-17T01:16:06;100225.39;;;13.06;91.51
75536;BME280;64119;52.070;20.804;2023-05-17T01:18:45;100227.45;;;13.05;93.67
75536;BME280;64119;52.070;20.804;2023-05-17T01:21:34;100224.33;;;13.03;92.92
75536;BME280;64119;52.070;20.804;2023-05-17T01:26:40;100224.35;;;12.99;91.99
75536;BME280;64119;52.070;20.804;2023-05-17T01:29:12;100225.61;;;13.02;91.38
75536;BME280;64119;52.070;20.804;2023-05-17T01:31:42;100223.98;;;12.99;92.37
75536;BME280;64119;52.070;20.804;2023-05-17T01:34:09;100220.45;;;12.98;91.14
75536;BME280;64119;52.070;20.804;2023-05-17T01:36:36;100221.05;;;12.98;90.72
75536;BME280;64119;52.070;20.804;2023-05-17T01:39:03;100224.52;;;12.97;91.79
75536;BME280;64119;52.070;20.804;2023-05-17T01:44:17;100223.36;;;12.94;91.30
75536;BME280;64119;52.070;20.804;2023-05-17T01:46:48;100223.08;;;12.92;92.52
75536;BME280;64119;52.070;20.804;2023-05-17T01:49:25;100226.03;;;12.90;91.37
75536;BME280;64119;52.070;20.804;2023-05-17T01:52:12;100227.05;;;12.87;92.65
75536;BME280;64119;52.070;20.804;2023-05-17T01:54:46;100229.80;;;12.83;93.14
75536;BME280;64119;52.070;20.804;2023-05-17T01:57:13;100227.34;;;12.80;93.54
75536;BME280;64119;52.070;20.804;2023-05-17T01:59:41;100228.29;;;12.78;92.74
75536;BME280;64119;52.070;20.804;2023-05-17T02:02:09;100228.34;;;12.75;92.38
75536;BME280;64119;52.070;20.804;2023-05-17T02:04:37;100229.19;;;12.73;93.07
75536;BME280;64119;52.070;20.804;2023-05-17T02:07:03;100234.42;;;12.72;90.89
75536;BME280;64119;52.070;20.804;2023-05-17T02:09:30;100236.07;;;12.72;91.18
75536;BME280;64119;52.070;20.804;2023-05-17T02:11:56;100238.27;;;12.71;92.79
75536;BME280;64119;52.070;20.804;2023-05-17T02:14:23;100240.86;;;12.69;92.59
75536;BME280;64119;52.070;20.804;2023-05-17T02:16:49;100240.45;;;12.67;94.13
75536;BME280;64119;52.070;20.804;2023-05-17T02:19:16;100240.98;;;12.64;92.01
75536;BME280;64119;52.070;20.804;2023-05-17T02:21:42;100244.66;;;12.64;92.49
75536;BME280;64119;52.070;20.804;2023-05-17T02:24:08;100238.16;;;12.62;91.94
75536;BME280;64119;52.070;20.804;2023-05-17T02:26:35;100237.47;;;12.61;92.19
75536;BME280;64119;52.070;20.804;2023-05-17T02:29:01;100239.23;;;12.59;92.89
75536;BME280;64119;52.070;20.804;2023-05-17T02:31:30;100245.61;;;12.59;91.81
75536;BME280;64119;52.070;20.804;2023-05-17T02:33:56;100249.66;;;12.57;93.15
75536;BME280;64119;52.070;20.804;2023-05-17T02:36:22;100255.07;;;12.56;93.35
75536;BME280;64119;52.070;20.804;2023-05-17T02:38:50;100260.72;;;12.55;92.30
75536;BME280;64119;52.070;20.804;2023-05-17T02:41:17;100257.35;;;12.53;94.34
75536;BME280;64119;52.070;20.804;2023-05-17T02:43:44;100257.92;;;12.53;92.58
75536;BME280;64119;52.070;20.804;2023-05-17T02:46:10;100259.12;;;12.52;93.17
75536;BME280;64119;52.070;20.804;2023-05-17T02:48:37;100255.88;;;12.49;94.27
75536;BME280;64119;52.070;20.804;2023-05-17T02:51:03;100262.14;;;12.48;94.88
75536;BME280;64119;52.070;20.804;2023-05-17T02:53:30;100264.64;;;12.47;94.56
75536;BME280;64119;52.070;20.804;2023-05-17T02:55:56;100261.11;;;12.45;93.98
75536;BME280;64119;52.070;20.804;2023-05-17T02:58:24;100265.05;;;12.47;93.42
75536;BME280;64119;52.070;20.804;2023-05-17T03:00:50;100257.92;;;12.45;93.87
75536;BME280;64119;52.070;20.804;2023-05-17T03:03:17;100256.17;;;12.45;93.70
75536;BME280;64119;52.070;20.804;2023-05-17T03:05:46;100254.72;;;12.43;95.05
75536;BME280;64119;52.070;20.804;2023-05-17T03:08:13;100257.71;;;12.43;94.06
75536;BME280;64119;52.070;20.804;2023-05-17T03:10:39;100260.74;;;12.43;93.18
75536;BME280;64119;52.070;20.804;2023-05-17T03:13:07;100259.68;;;12.43;93.56
75536;BME280;64119;52.070;20.804;2023-05-17T03:15:36;100254.20;;;12.43;94.11
75536;BME280;64119;52.070;20.804;2023-05-17T03:18:03;100257.48;;;12.42;94.62
75536;BME280;64119;52.070;20.804;2023-05-17T03:20:29;100259.15;;;12.43;94.26
75536;BME280;64119;52.070;20.804;2023-05-17T03:22:56;100260.22;;;12.41;96.02
75536;BME280;64119;52.070;20.804;2023-05-17T03:25:23;100260.79;;;12.41;96.16
75536;BME280;64119;52.070;20.804;2023-05-17T03:27:50;100261.61;;;12.42;94.51
75536;BME280;64119;52.070;20.804;2023-05-17T03:30:16;100263.86;;;12.42;94.71
75536;BME280;64119;52.070;20.804;2023-05-17T03:32:44;100267.46;;;12.42;95.25
75536;BME280;64119;52.070;20.804;2023-05-17T03:35:11;100267.38;;;12.41;94.88
75536;BME280;64119;52.070;20.804;2023-05-17T03:37:39;100267.09;;;12.43;94.10
75536;BME280;64119;52.070;20.804;2023-05-17T03:40:07;100262.17;;;12.43;95.43
75536;BME280;64119;52.070;20.804;2023-05-17T03:42:33;100264.30;;;12.41;96.54
75536;BME280;64119;52.070;20.804;2023-05-17T03:45:02;100262.67;;;12.42;96.00
75536;BME280;64119;52.070;20.804;2023-05-17T03:47:29;100266.23;;;12.42;94.77
75536;BME280;64119;52.070;20.804;2023-05-17T03:49:56;100271.10;;;12.43;93.77
75536;BME280;64119;52.070;20.804;2023-05-17T03:52:22;100270.23;;;12.43;95.07
75536;BME280;64119;52.070;20.804;2023-05-17T03:54:49;100281.41;;;12.44;95.48
75536;BME280;64119;52.070;20.804;2023-05-17T03:57:16;100281.95;;;12.43;94.20
75536;BME280;64119;52.070;20.804;2023-05-17T03:59:43;100286.38;;;12.45;94.45
75536;BME280;64119;52.070;20.804;2023-05-17T04:02:11;100287.55;;;12.45;93.65
75536;BME280;64119;52.070;20.804;2023-05-17T04:04:38;100285.27;;;12.45;94.37
75536;BME280;64119;52.070;20.804;2023-05-17T04:07:05;100286.83;;;12.44;94.76
75536;BME280;64119;52.070;20.804;2023-05-17T04:09:31;100290.63;;;12.43;95.36
75536;BME280;64119;52.070;20.804;2023-05-17T04:12:00;100291.48;;;12.42;95.32
75536;BME280;64119;52.070;20.804;2023-05-17T04:14:27;100295.17;;;12.41;94.25
75536;BME280;64119;52.070;20.804;2023-05-17T04:16:54;100295.32;;;12.40;95.29
75536;BME280;64119;52.070;20.804;2023-05-17T04:19:20;100303.14;;;12.40;95.65
75536;BME280;64119;52.070;20.804;2023-05-17T04:21:49;100312.02;;;12.40;95.29
75536;BME280;64119;52.070;20.804;2023-05-17T04:24:18;100308.22;;;12.39;94.93
75536;BME280;64119;52.070;20.804;2023-05-17T04:26:46;100307.48;;;12.41;94.85
75536;BME280;64119;52.070;20.804;2023-05-17T04:29:13;100306.30;;;12.40;94.62
75536;BME280;64119;52.070;20.804;2023-05-17T04:31:39;100307.98;;;12.42;95.15
75536;BME280;64119;52.070;20.804;2023-05-17T04:34:06;100313.02;;;12.42;96.16
75536;BME280;64119;52.070;20.804;2023-05-17T04:36:33;100317.55;;;12.42;94.79
75536;BME280;64119;52.070;20.804;2023-05-17T04:39:00;100315.06;;;12.44;94.08
75536;BME280;64119;52.070;20.804;2023-05-17T04:41:28;100317.16;;;12.44;94.12
75536;BME280;64119;52.070;20.804;2023-05-17T04:43:55;100321.24;;;12.45;94.58
75536;BME280;64119;52.070;20.804;2023-05-17T04:46:27;100326.68;;;12.47;94.28
75536;BME280;64119;52.070;20.804;2023-05-17T04:48:54;100326.94;;;12.48;95.18
75536;BME280;64119;52.070;20.804;2023-05-17T04:51:21;100327.03;;;12.49;94.18
75536;BME280;64119;52.070;20.804;2023-05-17T04:53:48;100332.55;;;12.48;93.88
75536;BME280;64119;52.070;20.804;2023-05-17T04:56:16;100331.32;;;12.48;94.86
75536;BME280;64119;52.070;20.804;2023-05-17T04:58:43;100329.85;;;12.47;95.25
75536;BME280;64119;52.070;20.804;2023-05-17T05:01:12;100329.96;;;12.46;94.75
75536;BME280;64119;52.070;20.804;2023-05-17T05:03:38;100328.69;;;12.45;95.55
75536;BME280;64119;52.070;20.804;2023-05-17T05:06:06;100325.82;;;12.43;95.47
75536;BME280;64119;52.070;20.804;2023-05-17T05:08:32;100327.17;;;12.41;95.46
75536;BME280;64119;52.070;20.804;2023-05-17T05:10:59;100329.88;;;12.42;94.97
75536;BME280;64119;52.070;20.804;2023-05-17T05:13:26;100328.80;;;12.40;94.64
75536;BME280;64119;52.070;20.804;2023-05-17T05:15:53;100328.96;;;12.41;94.89
75536;BME280;64119;52.070;20.804;2023-05-17T05:18:19;100326.85;;;12.42;94.45
75536;BME280;64119;52.070;20.804;2023-05-17T05:20:47;100320.05;;;12.41;95.20
75536;BME280;64119;52.070;20.804;2023-05-17T05:23:15;100310.77;;;12.42;96.32
75536;BME280;64119;52.070;20.804;2023-05-17T05:25:44;100300.28;;;12.42;95.53
75536;BME280;64119;52.070;20.804;2023-05-17T05:28:13;100281.45;;;12.43;96.43
75536;BME280;64119;52.070;20.804;2023-05-17T05:30:39;100274.54;;;12.44;96.80
75536;BME280;64119;52.070;20.804;2023-05-17T05:33:06;100269.91;;;12.47;96.12
75536;BME280;64119;52.070;20.804;2023-05-17T05:35:33;100269.42;;;12.50;96.09
75536;BME280;64119;52.070;20.804;2023-05-17T05:38:00;100269.52;;;12.51;96.06
75536;BME280;64119;52.070;20.804;2023-05-17T05:40:27;100274.02;;;12.52;95.61
75536;BME280;64119;52.070;20.804;2023-05-17T05:42:54;100293.38;;;12.55;94.85
75536;BME280;64119;52.070;20.804;2023-05-17T05:45:21;100312.88;;;12.56;95.50
75536;BME280;64119;52.070;20.804;2023-05-17T05:47:48;100325.73;;;12.54;94.96
75536;BME280;64119;52.070;20.804;2023-05-17T05:50:14;100332.97;;;12.53;94.76
75536;BME280;64119;52.070;20.804;2023-05-17T05:52:42;100333.09;;;12.52;94.98
75536;BME280;64119;52.070;20.804;2023-05-17T05:55:08;100335.41;;;12.49;94.48
75536;BME280;64119;52.070;20.804;2023-05-17T05:57:35;100336.93;;;12.46;95.28
75536;BME280;64119;52.070;20.804;2023-05-17T06:00:02;100337.63;;;12.45;95.54
75536;BME280;64119;52.070;20.804;2023-05-17T06:02:38;100339.58;;;12.44;94.96
75536;BME280;64119;52.070;20.804;2023-05-17T06:05:07;100336.66;;;12.41;95.30
75536;BME280;64119;52.070;20.804;2023-05-17T06:07:35;100342.16;;;12.41;95.07
75536;BME280;64119;52.070;20.804;2023-05-17T06:10:01;100346.30;;;12.44;94.96
75536;BME280;64119;52.070;20.804;2023-05-17T06:12:28;100346.34;;;12.44;95.30
75536;BME280;64119;52.070;20.804;2023-05-17T06:14:55;100347.45;;;12.44;94.90
75536;BME280;64119;52.070;20.804;2023-05-17T06:17:21;100351.87;;;12.46;95.11
75536;BME280;64119;52.070;20.804;2023-05-17T06:19:48;100354.20;;;12.44;95.00
75536;BME280;64119;52.070;20.804;2023-05-17T06:22:15;100357.64;;;12.44;94.58
75536;BME280;64119;52.070;20.804;2023-05-17T06:24:42;100361.57;;;12.46;94.64
75536;BME280;64119;52.070;20.804;2023-05-17T06:27:08;100366.11;;;12.47;94.30
75536;BME280;64119;52.070;20.804;2023-05-17T06:29:34;100370.69;;;12.47;94.25
75536;BME280;64119;52.070;20.804;2023-05-17T06:32:03;100375.73;;;12.45;94.29
75536;BME280;64119;52.070;20.804;2023-05-17T06:34:29;100381.59;;;12.44;94.63
75536;BME280;64119;52.070;20.804;2023-05-17T06:36:57;100384.27;;;12.41;94.57
75536;BME280;64119;52.070;20.804;2023-05-17T06:39:23;100385.05;;;12.41;94.33
75536;BME280;64119;52.070;20.804;2023-05-17T06:41:50;100384.30;;;12.39;94.25
75536;BME280;64119;52.070;20.804;2023-05-17T06:44:16;100391.25;;;12.38;94.68
75536;BME280;64119;52.070;20.804;2023-05-17T06:46:43;100399.18;;;12.37;94.63
75536;BME280;64119;52.070;20.804;2023-05-17T06:49:09;100401.39;;;12.36;95.00
75536;BME280;64119;52.070;20.804;2023-05-17T06:51:38;100399.55;;;12.35;94.76
75536;BME280;64119;52.070;20.804;2023-05-17T06:54:05;100401.52;;;12.34;94.74
75536;BME280;64119;52.070;20.804;2023-05-17T06:56:31;100396.89;;;12.34;94.62
75536;BME280;64119;52.070;20.804;2023-05-17T06:58:57;100396.48;;;12.36;94.62
75536;BME280;64119;52.070;20.804;2023-05-17T07:01:24;100394.94;;;12.37;94.75
75536;BME280;64119;52.070;20.804;2023-05-17T07:03:51;100400.47;;;12.39;94.21
75536;BME280;64119;52.070;20.804;2023-05-17T07:06:18;100402.71;;;12.38;94.51
75536;BME280;64119;52.070;20.804;2023-05-17T07:08:44;100403.29;;;12.38;94.98
75536;BME280;64119;52.070;20.804;2023-05-17T07:11:11;100400.38;;;12.36;94.96
75536;BME280;64119;52.070;20.804;2023-05-17T07:13:38;100401.70;;;12.38;95.18
75536;BME280;64119;52.070;20.804;2023-05-17T07:16:06;100398.06;;;12.41;95.13
75536;BME280;64119;52.070;20.804;2023-05-17T07:18:33;100384.14;;;12.42;94.85
75536;BME280;64119;52.070;20.804;2023-05-17T07:20:59;100378.96;;;12.45;94.27
75536;BME280;64119;52.070;20.804;2023-05-17T07:23:26;100380.90;;;12.49;94.54
75536;BME280;64119;52.070;20.804;2023-05-17T07:25:52;100379.30;;;12.51;94.83
75536;BME280;64119;52.070;20.804;2023-05-17T07:28:19;100390.00;;;12.54;94.90
75536;BME280;64119;52.070;20.804;2023-05-17T07:30:45;100399.88;;;12.57;94.68
75536;BME280;64119;52.070;20.804;2023-05-17T07:33:11;100404.59;;;12.60;94.05
75536;BME280;64119;52.070;20.804;2023-05-17T07:35:38;100406.77;;;12.61;95.11
75536;BME280;64119;52.070;20.804;2023-05-17T07:38:04;100405.48;;;12.64;94.50
75536;BME280;64119;52.070;20.804;2023-05-17T07:40:30;100402.27;;;12.64;94.77
75536;BME280;64119;52.070;20.804;2023-05-17T07:42:57;100406.53;;;12.63;95.02
75536;BME280;64119;52.070;20.804;2023-05-17T07:45:23;100410.59;;;12.66;94.23
75536;BME280;64119;52.070;20.804;2023-05-17T07:47:50;100410.11;;;12.68;94.54
75536;BME280;64119;52.070;20.804;2023-05-17T07:50:21;100413.39;;;12.72;94.51
75536;BME280;64119;52.070;20.804;2023-05-17T07:52:47;100418.14;;;12.73;95.08
75536;BME280;64119;52.070;20.804;2023-05-17T07:55:14;100417.41;;;12.79;94.83
75536;BME280;64119;52.070;20.804;2023-05-17T07:57:43;100419.85;;;12.83;94.67
75536;BME280;64119;52.070;20.804;2023-05-17T08:00:10;100415.27;;;12.85;94.15
75536;BME280;64119;52.070;20.804;2023-05-17T08:02:38;100417.42;;;12.85;94.66
75536;BME280;64119;52.070;20.804;2023-05-17T08:05:05;100412.73;;;12.89;94.24
75536;BME280;64119;52.070;20.804;2023-05-17T08:07:32;100415.41;;;12.94;94.49
75536;BME280;64119;52.070;20.804;2023-05-17T08:09:58;100419.27;;;12.99;94.08
75536;BME280;64119;52.070;20.804;2023-05-17T08:12:25;100424.61;;;13.03;94.13
75536;BME280;64119;52.070;20.804;2023-05-17T08:14:51;100424.31;;;13.04;93.87
75536;BME280;64119;52.070;20.804;2023-05-17T08:17:18;100426.41;;;13.03;93.82
75536;BME280;64119;52.070;20.804;2023-05-17T08:19:44;100428.54;;;13.02;93.22
75536;BME280;64119;52.070;20.804;2023-05-17T08:22:11;100428.48;;;12.98;93.59
75536;BME280;64119;52.070;20.804;2023-05-17T08:24:37;100430.58;;;12.97;94.07
75536;BME280;64119;52.070;20.804;2023-05-17T08:27:04;100434.42;;;12.96;94.01
75536;BME280;64119;52.070;20.804;2023-05-17T08:29:30;100440.35;;;12.93;93.56
75536;BME280;64119;52.070;20.804;2023-05-17T08:31:56;100443.34;;;12.91;93.70
75536;BME280;64119;52.070;20.804;2023-05-17T08:34:23;100439.27;;;12.90;93.93
75536;BME280;64119;52.070;20.804;2023-05-17T08:36:49;100443.88;;;12.91;93.18
75536;BME280;64119;52.070;20.804;2023-05-17T08:39:16;100447.10;;;12.89;93.41
75536;BME280;64119;52.070;20.804;2023-05-17T08:41:45;100454.34;;;12.85;93.77
75536;BME280;64119;52.070;20.804;2023-05-17T08:44:13;100455.11;;;12.82;93.83
75536;BME280;64119;52.070;20.804;2023-05-17T08:46:42;100458.58;;;12.81;93.52
75536;BME280;64119;52.070;20.804;2023-05-17T08:49:21;100457.34;;;12.76;93.38
75536;BME280;64119;52.070;20.804;2023-05-17T08:51:52;100456.21;;;12.68;93.29
75536;BME280;64119;52.070;20.804;2023-05-17T08:54:19;100465.00;;;12.61;93.76
75536;BME280;64119;52.070;20.804;2023-05-17T08:56:46;100466.54;;;12.59;93.40
75536;BME280;64119;52.070;20.804;2023-05-17T08:59:17;100464.95;;;12.51;93.30
75536;BME280;64119;52.070;20.804;2023-05-17T09:01:47;100471.68;;;12.46;93.60
75536;BME280;64119;52.070;20.804;2023-05-17T09:04:17;100474.53;;;12.42;93.76
75536;BME280;64119;52.070;20.804;2023-05-17T09:06:43;100475.77;;;12.38;93.98
75536;BME280;64119;52.070;20.804;2023-05-17T09:09:10;100473.73;;;12.31;94.05
75536;BME280;64119;52.070;20.804;2023-05-17T09:11:37;100471.40;;;12.24;94.01
75536;BME280;64119;52.070;20.804;2023-05-17T09:14:05;100472.86;;;12.15;94.50
75536;BME280;64119;52.070;20.804;2023-05-17T09:16:33;100475.33;;;12.09;94.92
75536;BME280;64119;52.070;20.804;2023-05-17T09:19:01;100480.38;;;12.06;94.49
75536;BME280;64119;52.070;20.804;2023-05-17T09:21:29;100483.94;;;12.06;94.54
75536;BME280;64119;52.070;20.804;2023-05-17T09:23:57;100485.73;;;12.07;94.77
75536;BME280;64119;52.070;20.804;2023-05-17T09:26:44;100487.77;;;12.12;94.55
75536;BME280;64119;52.070;20.804;2023-05-17T09:29:14;100487.81;;;12.11;94.55
75536;BME280;64119;52.070;20.804;2023-05-17T09:31:42;100490.49;;;12.09;94.88
75536;BME280;64119;52.070;20.804;2023-05-17T09:34:09;100488.63;;;12.08;94.88
75536;BME280;64119;52.070;20.804;2023-05-17T09:36:40;100491.34;;;12.06;94.46
75536;BME280;64119;52.070;20.804;2023-05-17T09:39:07;100493.27;;;11.96;94.32
75536;BME280;64119;52.070;20.804;2023-05-17T09:44:08;100498.87;;;11.84;94.56
75536;BME280;64119;52.070;20.804;2023-05-17T09:46:36;100502.52;;;11.79;94.38
75536;BME280;64119;52.070;20.804;2023-05-17T09:49:05;100500.65;;;11.76;94.56
75536;BME280;64119;52.070;20.804;2023-05-17T09:51:35;100498.88;;;11.70;94.42
75536;BME280;64119;52.070;20.804;2023-05-17T09:54:02;100501.08;;;11.66;94.47
75536;BME280;64119;52.070;20.804;2023-05-17T09:56:29;100499.81;;;11.63;94.94
75536;BME280;64119;52.070;20.804;2023-05-17T09:58:59;100508.44;;;11.63;94.52
75536;BME280;64119;52.070;20.804;2023-05-17T10:01:27;100510.48;;;11.62;94.59
75536;BME280;64119;52.070;20.804;2023-05-17T10:03:57;100515.61;;;11.64;94.73
75536;BME280;64119;52.070;20.804;2023-05-17T10:06:25;100516.20;;;11.62;94.51
75536;BME280;64119;52.070;20.804;2023-05-17T10:09:12;100516.65;;;11.65;94.25
75536;BME280;64119;52.070;20.804;2023-05-17T10:11:41;100520.85;;;11.66;94.49
75536;BME280;64119;52.070;20.804;2023-05-17T10:14:12;100524.70;;;11.66;94.26
75536;BME280;64119;52.070;20.804;2023-05-17T10:16:41;100525.96;;;11.65;94.15
75536;BME280;64119;52.070;20.804;2023-05-17T10:19:11;100525.85;;;11.63;94.35
75536;BME280;64119;52.070;20.804;2023-05-17T10:21:39;100526.37;;;11.60;94.68
75536;BME280;64119;52.070;20.804;2023-05-17T10:24:06;100528.15;;;11.59;95.07
75536;BME280;64119;52.070;20.804;2023-05-17T10:26:34;100527.26;;;11.60;94.67
75536;BME280;64119;52.070;20.804;2023-05-17T10:29:02;100526.85;;;11.55;94.61
75536;BME280;64119;52.070;20.804;2023-05-17T10:31:32;100532.73;;;11.55;94.70
75536;BME280;64119;52.070;20.804;2023-05-17T10:34:03;100531.08;;;11.54;94.96
75536;BME280;64119;52.070;20.804;2023-05-17T10:36:32;100530.58;;;11.55;94.61
75536;BME280;64119;52.070;20.804;2023-05-17T10:38:59;100526.89;;;11.55;95.28
75536;BME280;64119;52.070;20.804;2023-05-17T10:41:31;100528.27;;;11.59;94.92
75536;BME280;64119;52.070;20.804;2023-05-17T10:43:58;100528.04;;;11.61;94.27
75536;BME280;64119;52.070;20.804;2023-05-17T10:46:28;100533.88;;;11.64;94.89
75536;BME280;64119;52.070;20.804;2023-05-17T10:48:56;100533.83;;;11.67;94.71
75536;BME280;64119;52.070;20.804;2023-05-17T10:51:36;100536.45;;;11.69;94.09
75536;BME280;64119;52.070;20.804;2023-05-17T10:54:09;100542.21;;;11.78;93.92
75536;BME280;64119;52.070;20.804;2023-05-17T10:56:46;100544.64;;;11.85;93.66
75536;BME280;64119;52.070;20.804;2023-05-17T10:59:23;100543.02;;;11.91;94.15
75536;BME280;64119;52.070;20.804;2023-05-17T11:09:51;100552.52;;;12.09;91.70
75536;BME280;64119;52.070;20.804;2023-05-17T11:12:39;100549.85;;;12.09;92.45
75536;BME280;64119;52.070;20.804;2023-05-17T11:15:07;100548.61;;;12.12;91.98
75536;BME280;64119;52.070;20.804;2023-05-17T11:20:09;100553.06;;;12.04;91.71
75536;BME280;64119;52.070;20.804;2023-05-17T11:22:55;100555.91;;;12.03;91.80
75536;BME280;64119;52.070;20.804;2023-05-17T11:25:27;100553.23;;;12.02;91.93
75536;BME280;64119;52.070;20.804;2023-05-17T11:27:53;100551.63;;;11.98;92.19
75536;BME280;64119;52.070;20.804;2023-05-17T11:30:24;100554.79;;;11.96;92.07
75536;BME280;64119;52.070;20.804;2023-05-17T11:32:53;100557.16;;;11.91;92.73
75536;BME280;64119;52.070;20.804;2023-05-17T11:35:25;100554.79;;;11.92;92.69
75536;BME280;64119;52.070;20.804;2023-05-17T11:37:53;100555.34;;;11.92;92.92
75536;BME280;64119;52.070;20.804;2023-05-17T11:40:37;100556.65;;;11.92;93.41
75536;BME280;64119;52.070;20.804;2023-05-17T11:43:15;100560.20;;;11.95;93.45
75536;BME280;64119;52.070;20.804;2023-05-17T11:48:11;100557.39;;;11.99;93.20
75536;BME280;64119;52.070;20.804;2023-05-17T11:50:39;100556.35;;;12.02;93.26
75536;BME280;64119;52.070;20.804;2023-05-17T11:53:07;100559.13;;;12.06;93.20
75536;BME280;64119;52.070;20.804;2023-05-17T11:55:37;100562.08;;;12.11;93.66
75536;BME280;64119;52.070;20.804;2023-05-17T11:58:06;100568.77;;;12.20;94.13
75536;BME280;64119;52.070;20.804;2023-05-17T12:00:33;100568.89;;;12.26;93.24
75536;BME280;64119;52.070;20.804;2023-05-17T12:05:48;100568.38;;;12.29;92.91
75536;BME280;64119;52.070;20.804;2023-05-17T12:08:16;100574.08;;;12.30;93.43
75536;BME280;64119;52.070;20.804;2023-05-17T12:10:51;100578.36;;;12.34;92.78
75536;BME280;64119;52.070;20.804;2023-05-17T12:13:18;100584.02;;;12.37;92.99
75536;BME280;64119;52.070;20.804;2023-05-17T12:15:50;100586.23;;;12.42;93.14
75536;BME280;64119;52.070;20.804;2023-05-17T12:18:18;100589.91;;;12.47;93.11
75536;BME280;64119;52.070;20.804;2023-05-17T12:20:56;100598.27;;;12.54;93.24
75536;BME280;64119;52.070;20.804;2023-05-17T12:23:31;100594.99;;;12.61;93.31
75536;BME280;64119;52.070;20.804;2023-05-17T12:26:06;100598.55;;;12.67;93.56
75536;BME280;64119;52.070;20.804;2023-05-17T12:28:33;100597.69;;;12.74;93.14
75536;BME280;64119;52.070;20.804;2023-05-17T12:31:00;100596.90;;;12.80;93.32
75536;BME280;64119;52.070;20.804;2023-05-17T12:33:30;100593.15;;;12.84;93.52
75536;BME280;64119;52.070;20.804;2023-05-17T12:35:57;100592.69;;;12.89;92.87
75536;BME280;64119;52.070;20.804;2023-05-17T12:38:24;100591.26;;;12.90;92.51
75536;BME280;64119;52.070;20.804;2023-05-17T12:40:53;100584.71;;;12.85;92.50
75536;BME280;64119;52.070;20.804;2023-05-17T12:43:23;100586.90;;;12.88;92.72
75536;BME280;64119;52.070;20.804;2023-05-17T12:45:51;100586.00;;;12.94;92.54
75536;BME280;64119;52.070;20.804;2023-05-17T12:48:23;100592.10;;;12.94;92.73
75536;BME280;64119;52.070;20.804;2023-05-17T12:50:51;100598.55;;;12.97;92.41
75536;BME280;64119;52.070;20.804;2023-05-17T12:53:17;100596.04;;;12.96;92.01
75536;BME280;64119;52.070;20.804;2023-05-17T12:55:43;100595.91;;;12.94;92.36
75536;BME280;64119;52.070;20.804;2023-05-17T12:58:10;100595.90;;;12.93;92.63
75536;BME280;64119;52.070;20.804;2023-05-17T13:00:36;100595.69;;;12.92;92.18
75536;BME280;64119;52.070;20.804;2023-05-17T13:03:08;100594.45;;;12.89;91.86
75536;BME280;64119;52.070;20.804;2023-05-17T13:05:35;100598.50;;;12.82;91.67
75536;BME280;64119;52.070;20.804;2023-05-17T13:08:18;100598.67;;;12.81;91.99
75536;BME280;64119;52.070;20.804;2023-05-17T13:10:45;100599.33;;;12.81;91.72